createdAt,value
2017-11-13T00:00:29.098Z,6.26
2017-11-13T00:01:56.261Z,6.24
2017-11-13T00:03:23.558Z,6.22
2017-11-13T00:04:50.752Z,6.20
2017-11-13T00:06:18.870Z,6.18
2017-11-13T00:07:45.272Z,6.18
2017-11-13T00:09:12.451Z,6.18
2017-11-13T00:10:40.473Z,6.12
2017-11-13T00:12:06.711Z,6.05
2017-11-13T00:13:34.162Z,5.98
2017-11-13T00:15:01.433Z,5.92
2017-11-13T00:16:29.719Z,5.93
2017-11-13T00:17:56.904Z,5.93
2017-11-13T00:19:23.057Z,5.96
2017-11-13T00:20:51.415Z,5.98
2017-11-13T00:22:18.532Z,5.99
2017-11-13T00:23:44.727Z,5.93
2017-11-13T00:25:11.992Z,5.89
2017-11-13T00:26:39.002Z,5.87
2017-11-13T00:28:06.515Z,5.85
2017-11-13T00:29:33.773Z,5.86
2017-11-13T00:31:01.927Z,5.88
2017-11-13T00:32:29.221Z,5.90
2017-11-13T00:33:56.479Z,5.92
2017-11-13T00:35:23.817Z,5.93
2017-11-13T00:36:51.072Z,5.93
2017-11-13T00:38:17.326Z,5.93
2017-11-13T00:39:45.483Z,5.92
2017-11-13T00:41:12.811Z,5.90
2017-11-13T00:42:40.084Z,5.91
2017-11-13T00:44:07.489Z,5.91
2017-11-13T00:45:33.819Z,5.91
2017-11-13T00:47:00.929Z,5.92
2017-11-13T00:48:28.249Z,5.93
2017-11-13T00:49:55.894Z,5.94
2017-11-13T00:51:23.197Z,5.94
2017-11-13T00:52:51.514Z,5.95
2017-11-13T00:54:18.866Z,5.96
2017-11-13T00:55:45.066Z,5.98
2017-11-13T00:57:13.051Z,5.98
2017-11-13T00:58:39.175Z,5.97
2017-11-13T01:00:06.252Z,5.97
2017-11-13T01:01:33.326Z,5.98
2017-11-13T01:03:00.631Z,6.00
2017-11-13T01:04:28.813Z,6.01
2017-11-13T01:05:54.974Z,6.03
2017-11-13T01:07:23.326Z,6.04
2017-11-13T01:08:50.700Z,6.05
2017-11-13T01:10:17.878Z,6.06
2017-11-13T01:11:43.998Z,6.06
2017-11-13T01:13:11.117Z,6.07
2017-11-13T01:14:39.432Z,6.09
2017-11-13T01:16:05.736Z,6.10
2017-11-13T01:17:33.919Z,6.09
2017-11-13T01:19:00.241Z,6.04
2017-11-13T01:20:28.465Z,5.99
2017-11-13T01:21:54.670Z,5.97
2017-11-13T01:23:22.789Z,5.95
2017-11-13T01:24:50.217Z,5.98
2017-11-13T01:26:16.549Z,5.96
2017-11-13T01:27:44.640Z,5.92
2017-11-13T01:29:11.866Z,5.91
2017-11-13T01:30:38.223Z,5.92
2017-11-13T01:32:06.556Z,5.90
2017-11-13T01:33:33.915Z,5.90
2017-11-13T01:35:01.035Z,5.92
2017-11-13T01:36:27.259Z,5.93
2017-11-13T01:37:55.417Z,5.91
2017-11-13T01:39:21.637Z,5.89
2017-11-13T01:40:48.926Z,5.88
2017-11-13T01:42:17.250Z,5.89
2017-11-13T01:43:43.436Z,5.90
2017-11-13T01:45:10.655Z,5.88
2017-11-13T01:46:38.959Z,5.87
2017-11-13T01:48:06.217Z,5.84
2017-11-13T01:49:32.436Z,5.82
2017-11-13T01:50:59.741Z,5.79
2017-11-13T01:52:28.084Z,5.76
2017-11-13T01:53:55.464Z,5.70
2017-11-13T01:55:21.371Z,5.64
2017-11-13T01:56:48.680Z,5.56
2017-11-13T01:58:17.075Z,5.53
2017-11-13T01:59:44.260Z,5.50
2017-11-13T02:01:11.572Z,5.46
2017-11-13T02:02:38.632Z,5.41
2017-11-13T02:04:05.100Z,5.35
2017-11-13T02:05:33.456Z,5.33
2017-11-13T02:07:00.504Z,5.31
2017-11-13T02:08:27.735Z,5.30
2017-11-13T02:09:55.175Z,5.26
2017-11-13T02:11:22.142Z,5.22
2017-11-13T02:12:48.465Z,5.17
2017-11-13T02:14:15.787Z,5.11
2017-11-13T02:15:42.954Z,5.10
2017-11-13T02:17:10.169Z,5.11
2017-11-13T02:18:37.454Z,5.11
2017-11-13T02:20:04.788Z,5.12
2017-11-13T02:21:33.152Z,5.14
2017-11-13T02:22:59.425Z,5.11
2017-11-13T02:24:27.542Z,5.08
2017-11-13T02:25:54.850Z,5.09
2017-11-13T02:27:21.110Z,5.09
2017-11-13T02:28:49.340Z,5.09
2017-11-13T02:30:16.666Z,5.08
2017-11-13T02:31:43.729Z,5.06
2017-11-13T02:33:11.014Z,5.06
2017-11-13T02:34:37.069Z,5.06
2017-11-13T02:36:05.374Z,5.07
2017-11-13T02:37:31.622Z,5.09
2017-11-13T02:38:59.697Z,5.11
2017-11-13T02:40:25.826Z,5.11
2017-11-13T02:41:54.008Z,5.07
2017-11-13T02:43:21.456Z,5.08
2017-11-13T02:44:47.686Z,5.07
2017-11-13T02:46:15.976Z,5.04
2017-11-13T02:47:43.228Z,4.98
2017-11-13T02:49:09.134Z,4.93
2017-11-13T02:50:36.287Z,4.89
2017-11-13T02:52:03.793Z,4.87
2017-11-13T02:53:31.944Z,4.87
2017-11-13T02:54:58.029Z,4.85
2017-11-13T02:56:25.268Z,4.86
2017-11-13T02:57:53.589Z,4.84
2017-11-13T02:59:20.887Z,4.81
2017-11-13T03:00:47.919Z,4.78
2017-11-13T03:02:14.370Z,4.80
2017-11-13T03:03:42.278Z,4.81
2017-11-13T03:05:08.667Z,4.75
2017-11-13T03:06:36.636Z,4.73
2017-11-13T03:08:02.801Z,4.71
2017-11-13T03:09:30.926Z,4.67
2017-11-13T03:10:57.148Z,4.65
2017-11-13T03:12:25.519Z,4.59
2017-11-13T03:13:53.220Z,4.55
2017-11-13T03:15:20.585Z,4.49
2017-11-13T03:16:46.801Z,4.43
2017-11-13T03:18:14.904Z,4.37
2017-11-13T03:19:41.249Z,4.33
2017-11-13T03:21:09.440Z,4.30
2017-11-13T03:22:35.611Z,4.27
2017-11-13T03:24:03.879Z,4.30
2017-11-13T03:25:31.172Z,4.32
2017-11-13T03:26:58.462Z,4.33
2017-11-13T03:28:25.679Z,4.34
2017-11-13T03:29:53.076Z,4.33
2017-11-13T03:31:20.351Z,4.31
2017-11-13T03:32:46.578Z,4.31
2017-11-13T03:34:14.826Z,4.32
2017-11-13T03:35:41.031Z,4.35
2017-11-13T03:37:09.451Z,4.40
2017-11-13T03:38:35.675Z,4.43
2017-11-13T03:40:03.029Z,4.44
2017-11-13T03:41:31.283Z,4.45
2017-11-13T03:42:57.553Z,4.48
2017-11-13T03:44:25.968Z,4.50
2017-11-13T03:45:53.105Z,4.53
2017-11-13T03:47:20.384Z,4.56
2017-11-13T03:48:47.691Z,4.59
2017-11-13T03:50:13.980Z,4.61
2017-11-13T03:51:41.190Z,4.62
2017-11-13T03:53:08.399Z,4.62
2017-11-13T03:54:35.828Z,4.60
2017-11-13T03:56:04.104Z,4.58
2017-11-13T03:57:31.356Z,4.55
2017-11-13T03:58:57.634Z,4.51
2017-11-13T04:00:24.921Z,4.50
2017-11-13T04:01:52.306Z,4.52
2017-11-13T04:03:20.461Z,4.50
2017-11-13T04:04:47.663Z,4.43
2017-11-13T04:06:15.057Z,4.44
2017-11-13T04:07:41.265Z,4.46
2017-11-13T04:09:09.546Z,4.46
2017-11-13T04:10:35.807Z,4.46
2017-11-13T04:12:03.084Z,4.46
2017-11-13T04:13:30.283Z,4.45
2017-11-13T04:14:57.559Z,4.45
2017-11-13T04:16:25.778Z,4.46
2017-11-13T04:17:52.141Z,4.43
2017-11-13T04:19:20.381Z,4.44
2017-11-13T04:20:46.626Z,4.44
2017-11-13T04:22:14.866Z,4.45
2017-11-13T04:23:41.194Z,4.46
2017-11-13T04:25:09.385Z,4.47
2017-11-13T04:26:36.457Z,4.44
2017-11-13T04:28:02.717Z,4.37
2017-11-13T04:29:31.082Z,4.34
2017-11-13T04:30:58.116Z,4.28
2017-11-13T04:32:25.253Z,4.28
2017-11-13T04:33:51.486Z,4.28
2017-11-13T04:35:19.704Z,4.26
2017-11-13T04:36:45.908Z,4.23
2017-11-13T04:38:12.981Z,4.23
2017-11-13T04:39:40.249Z,4.22
2017-11-13T04:41:07.442Z,4.24
2017-11-13T04:42:35.672Z,4.25
2017-11-13T04:44:01.825Z,4.25
2017-11-13T04:45:29.192Z,4.23
2017-11-13T04:46:56.566Z,4.18
2017-11-13T04:48:24.755Z,4.19
2017-11-13T04:49:50.802Z,4.19
2017-11-13T04:51:19.072Z,4.21
2017-11-13T04:52:45.205Z,4.23
2017-11-13T04:54:13.427Z,4.23
2017-11-13T04:55:39.494Z,4.14
2017-11-13T04:57:07.776Z,4.10
2017-11-13T04:58:35.055Z,4.06
2017-11-13T05:00:01.299Z,4.04
2017-11-13T05:01:29.536Z,4.03
2017-11-13T05:02:55.710Z,4.02
2017-11-13T05:04:24.009Z,4.03
2017-11-13T05:05:50.322Z,3.98
2017-11-13T05:07:18.648Z,3.99
2017-11-13T05:08:45.800Z,4.03
2017-11-13T05:10:13.007Z,4.01
2017-11-13T05:11:40.016Z,3.96
2017-11-13T05:13:06.301Z,3.98
2017-11-13T05:14:34.462Z,3.93
2017-11-13T05:16:01.804Z,3.91
2017-11-13T05:17:29.098Z,3.91
2017-11-13T05:18:56.196Z,3.89
2017-11-13T05:20:22.474Z,3.92
2017-11-13T05:21:49.717Z,3.91
2017-11-13T05:23:17.172Z,3.92
2017-11-13T05:24:45.456Z,3.94
2017-11-13T05:26:11.695Z,3.97
2017-11-13T05:27:39.793Z,3.93
2017-11-13T05:29:06.964Z,3.94
2017-11-13T05:30:34.297Z,3.95
2017-11-13T05:32:01.613Z,3.94
2017-11-13T05:33:28.020Z,3.96
2017-11-13T05:34:56.114Z,3.93
2017-11-13T05:36:22.318Z,3.89
2017-11-13T05:37:50.662Z,3.85
2017-11-13T05:39:16.813Z,3.85
2017-11-13T05:40:45.092Z,3.84
2017-11-13T05:42:11.322Z,3.85
2017-11-13T05:43:39.541Z,3.81
2017-11-13T05:45:06.618Z,3.77
2017-11-13T05:46:32.839Z,3.75
2017-11-13T05:48:00.187Z,3.77
2017-11-13T05:49:28.418Z,3.72
2017-11-13T05:50:55.818Z,3.75
2017-11-13T05:52:22.870Z,3.75
2017-11-13T05:53:49.107Z,3.77
2017-11-13T05:55:17.367Z,3.80
2017-11-13T05:56:44.542Z,3.81
2017-11-13T05:58:11.508Z,3.77
2017-11-13T05:59:38.736Z,3.74
2017-11-13T06:01:06.139Z,3.75
2017-11-13T06:02:32.313Z,3.70
2017-11-13T06:04:00.316Z,3.66
2017-11-13T06:05:26.639Z,3.64
2017-11-13T06:06:53.900Z,3.62
2017-11-13T06:08:21.214Z,3.62
2017-11-13T06:09:48.437Z,3.61
2017-11-13T06:11:15.724Z,3.59
2017-11-13T06:12:43.991Z,3.59
2017-11-13T06:14:10.971Z,3.58
2017-11-13T06:15:38.332Z,3.58
2017-11-13T06:17:04.667Z,3.57
2017-11-13T06:18:33.019Z,3.56
2017-11-13T06:20:00.348Z,3.59
2017-11-13T06:21:26.697Z,3.62
2017-11-13T06:22:54.881Z,3.61
2017-11-13T06:24:22.105Z,3.63
2017-11-13T06:25:48.371Z,3.67
2017-11-13T06:27:16.666Z,3.66
2017-11-13T06:28:42.935Z,3.68
2017-11-13T06:30:09.915Z,3.68
2017-11-13T06:31:37.145Z,3.70
2017-11-13T06:33:05.524Z,3.72
2017-11-13T06:34:32.866Z,3.73
2017-11-13T06:36:00.059Z,3.74
2017-11-13T06:37:26.412Z,3.74
2017-11-13T06:38:53.495Z,3.76
2017-11-13T06:40:21.721Z,3.74
2017-11-13T06:41:48.906Z,3.77
2017-11-13T06:43:14.998Z,3.80
2017-11-13T06:44:43.209Z,3.82
2017-11-13T06:46:10.290Z,3.85
2017-11-13T06:47:37.610Z,3.86
2017-11-13T06:49:04.921Z,3.86
2017-11-13T06:50:32.081Z,3.86
2017-11-13T06:51:59.260Z,3.88
2017-11-13T06:53:25.203Z,3.89
2017-11-13T06:54:53.517Z,3.89
2017-11-13T06:56:20.685Z,3.89
2017-11-13T06:57:47.812Z,3.91
2017-11-13T06:59:13.800Z,3.89
2017-11-13T07:00:41.928Z,3.88
2017-11-13T07:02:08.061Z,3.88
2017-11-13T07:03:35.437Z,3.89
2017-11-13T07:05:02.671Z,3.90
2017-11-13T07:06:30.004Z,3.89
2017-11-13T07:07:58.363Z,3.91
2017-11-13T07:09:24.672Z,3.93
2017-11-13T07:10:52.715Z,3.95
2017-11-13T07:12:20.046Z,3.97
2017-11-13T07:13:47.231Z,3.98
2017-11-13T07:15:14.429Z,4.01
2017-11-13T07:16:41.763Z,4.04
2017-11-13T07:18:07.918Z,4.06
2017-11-13T07:19:36.272Z,4.09
2017-11-13T07:21:02.510Z,4.12
2017-11-13T07:22:30.512Z,4.13
2017-11-13T07:23:57.818Z,4.16
2017-11-13T07:25:24.847Z,4.18
2017-11-13T07:26:52.117Z,4.21
2017-11-13T07:28:19.231Z,4.22
2017-11-13T07:29:44.916Z,4.24
2017-11-13T07:31:13.167Z,4.27
2017-11-13T07:32:40.172Z,4.30
2017-11-13T07:34:06.308Z,4.31
2017-11-13T07:35:34.661Z,4.32
2017-11-13T07:37:00.731Z,4.33
2017-11-13T07:38:28.065Z,4.33
2017-11-13T07:39:55.458Z,4.34
2017-11-13T07:41:23.751Z,4.36
2017-11-13T07:42:49.774Z,4.38
2017-11-13T07:44:18.052Z,4.38
2017-11-13T07:45:45.371Z,4.39
2017-11-13T07:47:11.311Z,4.40
2017-11-13T07:48:39.530Z,4.43
2017-11-13T07:50:06.313Z,4.47
2017-11-13T07:51:33.523Z,4.48
2017-11-13T07:53:00.923Z,4.50
2017-11-13T07:54:27.182Z,4.52
2017-11-13T07:55:54.536Z,4.53
2017-11-13T07:57:21.573Z,4.55
2017-11-13T07:58:49.788Z,4.58
2017-11-13T08:00:16.948Z,4.59
2017-11-13T08:01:43.046Z,4.62
2017-11-13T08:03:11.241Z,4.64
2017-11-13T08:04:38.652Z,4.66
2017-11-13T08:06:05.964Z,4.68
2017-11-13T08:07:32.348Z,4.70
2017-11-13T08:08:59.543Z,4.71
2017-11-13T08:10:26.806Z,4.72
2017-11-13T08:11:54.929Z,4.74
2017-11-13T08:13:21.281Z,4.77
2017-11-13T08:14:48.612Z,4.80
2017-11-13T08:16:15.802Z,4.81
2017-11-13T08:17:43.925Z,4.83
2017-11-13T08:19:10.063Z,4.85
2017-11-13T08:20:38.248Z,4.88
2017-11-13T08:22:04.621Z,4.89
2017-11-13T08:23:32.837Z,4.91
2017-11-13T08:24:59.133Z,4.92
2017-11-13T08:26:27.417Z,4.93
2017-11-13T08:27:53.719Z,4.95
2017-11-13T08:29:22.058Z,4.97
2017-11-13T08:30:49.189Z,4.99
2017-11-13T08:32:15.417Z,5.01
2017-11-13T08:33:42.738Z,5.03
2017-11-13T08:35:10.989Z,5.06
2017-11-13T08:36:37.088Z,5.09
2017-11-13T08:38:04.468Z,5.11
2017-11-13T08:39:31.840Z,5.13
2017-11-13T08:41:00.131Z,5.14
2017-11-13T08:42:26.414Z,5.17
2017-11-13T08:43:54.615Z,5.20
2017-11-13T08:45:21.890Z,5.23
2017-11-13T08:46:49.107Z,5.25
2017-11-13T08:48:15.400Z,5.28
2017-11-13T08:49:42.572Z,5.31
2017-11-13T08:51:09.784Z,5.34
2017-11-13T08:52:37.874Z,5.38
2017-11-13T08:54:04.917Z,5.42
2017-11-13T08:55:32.116Z,5.44
2017-11-13T08:56:59.254Z,5.47
2017-11-13T08:58:25.567Z,5.52
2017-11-13T08:59:53.668Z,5.56
2017-11-13T09:01:20.060Z,5.65
2017-11-13T09:02:47.220Z,5.76
2017-11-13T09:04:15.368Z,5.83
2017-11-13T09:05:41.483Z,5.88
2017-11-13T09:07:09.495Z,5.95
2017-11-13T09:08:35.957Z,6.03
2017-11-13T09:10:04.014Z,6.13
2017-11-13T09:11:31.279Z,6.22
2017-11-13T09:12:57.293Z,6.28
2017-11-13T09:14:24.704Z,6.33
2017-11-13T09:15:52.905Z,6.39
2017-11-13T09:17:19.070Z,6.44
2017-11-13T09:18:47.210Z,6.50
2017-11-13T09:20:14.498Z,6.52
2017-11-13T09:21:41.604Z,6.53
2017-11-13T09:23:08.896Z,6.53
2017-11-13T09:24:35.165Z,6.53
2017-11-13T09:26:02.524Z,6.52
2017-11-13T09:27:29.649Z,6.51
2017-11-13T09:28:56.988Z,6.51
2017-11-13T09:30:25.211Z,6.55
2017-11-13T09:31:51.637Z,6.63
2017-11-13T09:33:19.776Z,6.71
2017-11-13T09:34:47.115Z,6.79
2017-11-13T09:36:13.438Z,6.85
2017-11-13T09:37:41.443Z,6.88
2017-11-13T09:39:07.849Z,6.89
2017-11-13T09:40:36.194Z,6.90
2017-11-13T09:42:03.447Z,6.89
2017-11-13T09:43:29.804Z,6.89
2017-11-13T09:44:58.153Z,6.92
2017-11-13T09:46:24.468Z,6.95
2017-11-13T09:47:52.736Z,6.98
2017-11-13T09:49:20.200Z,7.00
2017-11-13T09:50:46.164Z,7.03
2017-11-13T09:52:14.590Z,7.04
2017-11-13T09:53:40.813Z,7.05
2017-11-13T09:55:08.152Z,7.08
2017-11-13T09:56:36.397Z,7.16
2017-11-13T09:58:03.781Z,7.25
2017-11-13T09:59:31.071Z,7.31
2017-11-13T10:00:58.167Z,7.35
2017-11-13T10:02:24.499Z,7.37
2017-11-13T10:03:52.660Z,7.39
2017-11-13T10:05:19.012Z,7.41
2017-11-13T10:06:46.328Z,7.43
2017-11-13T10:08:13.659Z,7.42
2017-11-13T10:09:41.991Z,7.42
2017-11-13T10:11:09.346Z,7.41
2017-11-13T10:12:36.595Z,7.40
2017-11-13T10:14:03.960Z,7.39
2017-11-13T10:15:31.371Z,7.40
2017-11-13T10:16:58.570Z,7.40
2017-11-13T10:18:25.863Z,7.42
2017-11-13T10:19:52.051Z,7.44
2017-11-13T10:21:20.299Z,7.46
2017-11-13T10:22:47.734Z,7.48
2017-11-13T10:24:14.772Z,7.50
2017-11-13T10:25:40.839Z,7.50
2017-11-13T10:27:08.138Z,7.50
2017-11-13T10:28:36.500Z,7.51
2017-11-13T10:30:03.661Z,7.53
2017-11-13T10:31:30.882Z,7.56
2017-11-13T10:32:57.235Z,7.64
2017-11-13T10:34:24.574Z,7.75
2017-11-13T10:35:51.726Z,7.87
2017-11-13T10:37:19.913Z,7.95
2017-11-13T10:38:46.142Z,8.00
2017-11-13T10:40:13.688Z,8.03
2017-11-13T10:41:41.030Z,8.03
2017-11-13T10:43:09.437Z,8.00
2017-11-13T10:44:36.784Z,7.97
2017-11-13T10:46:03.073Z,7.91
2017-11-13T10:47:31.173Z,7.83
2017-11-13T10:48:57.633Z,7.76
2017-11-13T10:50:25.741Z,7.68
2017-11-13T10:51:51.958Z,7.63
2017-11-13T10:53:19.893Z,7.58
2017-11-13T10:54:47.113Z,7.56
2017-11-13T10:56:13.579Z,7.56
2017-11-13T10:57:40.776Z,7.56
2017-11-13T10:59:09.134Z,7.56
2017-11-13T11:00:36.536Z,7.56
2017-11-13T11:02:03.781Z,7.57
2017-11-13T11:03:30.044Z,7.56
2017-11-13T11:04:57.136Z,7.58
2017-11-13T11:06:25.377Z,7.57
2017-11-13T11:07:52.774Z,7.59
2017-11-13T11:09:19.032Z,7.60
2017-11-13T11:10:46.263Z,7.62
2017-11-13T11:12:14.441Z,7.63
2017-11-13T11:13:41.388Z,7.63
2017-11-13T11:15:08.656Z,7.63
2017-11-13T11:16:35.905Z,7.64
2017-11-13T11:18:03.115Z,7.64
2017-11-13T11:19:29.201Z,7.65
2017-11-13T11:20:56.586Z,7.66
2017-11-13T11:22:24.760Z,7.69
2017-11-13T11:23:50.835Z,7.71
2017-11-13T11:25:18.088Z,7.73
2017-11-13T11:26:46.293Z,7.75
2017-11-13T11:28:13.569Z,7.76
2017-11-13T11:29:40.697Z,7.76
2017-11-13T11:31:08.095Z,7.76
2017-11-13T11:32:34.207Z,7.75
2017-11-13T11:34:02.567Z,7.77
2017-11-13T11:35:29.033Z,7.75
2017-11-13T11:36:56.982Z,7.73
2017-11-13T11:38:24.254Z,7.72
2017-11-13T11:39:50.340Z,7.71
2017-11-13T11:41:18.499Z,7.70
2017-11-13T11:42:45.672Z,7.71
2017-11-13T11:44:11.765Z,7.73
2017-11-13T11:45:40.063Z,7.78
2017-11-13T11:47:07.120Z,7.85
2017-11-13T11:48:34.381Z,7.92
2017-11-13T11:50:00.645Z,7.95
2017-11-13T11:51:28.768Z,8.00
2017-11-13T11:52:54.955Z,8.04
2017-11-13T11:54:22.259Z,8.08
2017-11-13T11:55:49.434Z,8.12
2017-11-13T11:57:17.619Z,8.15
2017-11-13T11:58:44.843Z,8.19
2017-11-13T12:00:12.157Z,8.23
2017-11-13T12:01:39.415Z,8.22
2017-11-13T12:03:06.627Z,8.19
2017-11-13T12:04:32.942Z,8.15
2017-11-13T12:06:01.099Z,8.08
2017-11-13T12:07:28.449Z,8.02
2017-11-13T12:08:54.617Z,7.99
2017-11-13T12:10:23.118Z,7.97
2017-11-13T12:11:50.317Z,7.92
2017-11-13T12:13:17.686Z,7.87
2017-11-13T12:14:44.603Z,7.84
2017-11-13T12:16:10.774Z,7.81
2017-11-13T12:17:38.056Z,7.80
2017-11-13T12:19:05.250Z,7.82
2017-11-13T12:20:33.548Z,7.83
2017-11-13T12:23:27.206Z,7.81
2017-11-13T12:24:55.505Z,7.83
2017-11-13T12:26:22.992Z,7.85
2017-11-13T12:27:49.123Z,7.85
2017-11-13T12:29:17.427Z,7.82
2017-11-13T12:30:44.554Z,7.77
2017-11-13T12:32:10.710Z,7.69
2017-11-13T12:33:38.817Z,7.63
2017-11-13T12:35:04.939Z,7.62
2017-11-13T12:36:33.329Z,7.65
2017-11-13T12:37:59.505Z,7.68
2017-11-13T12:39:27.805Z,7.75
2017-11-13T12:40:53.824Z,7.83
2017-11-13T12:42:21.347Z,7.89
2017-11-13T12:43:48.587Z,7.94
2017-11-13T12:45:15.968Z,7.99
2017-11-13T12:46:43.197Z,8.02
2017-11-13T12:48:10.505Z,8.02
2017-11-13T12:49:38.819Z,7.98
2017-11-13T12:51:04.752Z,7.97
2017-11-13T12:52:32.055Z,7.99
2017-11-13T12:54:00.118Z,8.05
2017-11-13T12:55:27.387Z,8.10
2017-11-13T12:56:53.713Z,8.10
2017-11-13T12:58:20.941Z,8.06
2017-11-13T12:59:48.214Z,8.04
2017-11-13T13:01:16.545Z,8.01
2017-11-13T13:02:42.582Z,7.99
2017-11-13T13:04:10.689Z,7.98
2017-11-13T13:05:38.190Z,7.97
2017-11-13T13:07:04.339Z,7.93
2017-11-13T13:08:32.745Z,7.91
2017-11-13T13:09:59.112Z,7.89
2017-11-13T13:11:27.397Z,7.87
2017-11-13T13:12:54.577Z,7.80
2017-11-13T13:14:21.635Z,7.74
2017-11-13T13:15:48.668Z,7.68
2017-11-13T13:17:15.080Z,7.63
2017-11-13T13:18:42.033Z,7.59
2017-11-13T13:20:10.600Z,7.51
2017-11-13T13:21:37.664Z,7.45
2017-11-13T13:23:03.735Z,7.40
2017-11-13T13:24:31.987Z,7.36
2017-11-13T13:25:59.409Z,7.30
2017-11-13T13:27:26.632Z,7.23
2017-11-13T13:28:54.064Z,7.18
2017-11-13T13:30:20.945Z,7.15
2017-11-13T13:31:47.217Z,7.12
2017-11-13T13:33:14.490Z,7.05
2017-11-13T13:34:41.683Z,7.00
2017-11-13T13:36:10.101Z,6.96
2017-11-13T13:37:37.448Z,6.93
2017-11-13T13:39:04.799Z,6.88
2017-11-13T13:40:30.866Z,6.88
2017-11-13T13:41:58.102Z,6.85
2017-11-13T13:43:25.410Z,6.81
2017-11-13T13:44:52.764Z,6.81
2017-11-13T13:46:20.944Z,6.80
2017-11-13T13:47:47.200Z,6.77
2017-11-13T13:49:15.339Z,6.78
2017-11-13T13:50:44.317Z,6.77
2017-11-13T13:52:09.575Z,6.75
2017-11-13T13:53:36.989Z,6.74
2017-11-13T13:55:03.083Z,6.73
2017-11-13T13:56:31.182Z,6.72
2017-11-13T13:57:58.111Z,6.71
2017-11-13T13:59:25.555Z,6.68
2017-11-13T14:00:52.717Z,6.65
2017-11-13T14:02:19.216Z,6.64
2017-11-13T14:03:47.168Z,6.62
2017-11-13T14:05:14.383Z,6.62
2017-11-13T14:06:40.697Z,6.58
2017-11-13T14:08:08.563Z,6.57
2017-11-13T14:09:35.859Z,6.56
2017-11-13T14:11:03.138Z,6.53
2017-11-13T14:12:30.360Z,6.51
2017-11-13T14:13:56.755Z,6.50
2017-11-13T14:15:24.817Z,6.46
2017-11-13T14:16:51.107Z,6.44
2017-11-13T14:18:19.554Z,6.43
2017-11-13T14:19:46.688Z,6.43
2017-11-13T14:21:12.987Z,6.43
2017-11-13T14:22:41.048Z,6.45
2017-11-13T14:24:08.044Z,6.47
2017-11-13T14:25:34.217Z,6.49
2017-11-13T14:27:02.344Z,6.51
2017-11-13T14:28:28.742Z,6.51
2017-11-13T14:29:57.073Z,6.52
2017-11-13T14:31:23.157Z,6.53
2017-11-13T14:32:51.358Z,6.54
2017-11-13T14:34:18.696Z,6.55
2017-11-13T14:35:45.838Z,6.55
2017-11-13T14:37:12.579Z,6.54
2017-11-13T14:38:39.668Z,6.53
2017-11-13T14:40:06.829Z,6.51
2017-11-13T14:41:34.049Z,6.49
2017-11-13T14:43:00.221Z,6.46
2017-11-13T14:44:28.507Z,6.43
2017-11-13T14:45:57.848Z,6.40
2017-11-13T14:47:22.307Z,6.37
2017-11-13T14:48:50.312Z,6.36
2017-11-13T14:51:44.433Z,6.31
2017-11-13T14:53:11.598Z,6.30
2017-11-13T14:54:37.844Z,6.30
2017-11-13T14:56:05.898Z,6.29
2017-11-13T14:57:31.903Z,6.26
2017-11-13T14:59:00.087Z,6.22
2017-11-13T15:00:27.564Z,6.21
2017-11-13T15:01:54.661Z,6.20
2017-11-13T15:03:21.784Z,6.19
2017-11-13T15:04:49.952Z,6.17
2017-11-13T15:06:16.289Z,6.17
2017-11-13T15:07:43.283Z,6.17
2017-11-13T15:09:09.305Z,6.16
2017-11-13T15:10:37.569Z,6.17
2017-11-13T15:12:03.919Z,6.18
2017-11-13T15:13:32.069Z,6.17
2017-11-13T15:14:59.445Z,6.18
2017-11-13T15:16:25.725Z,6.18
2017-11-13T15:17:53.892Z,6.17
2017-11-13T15:19:20.784Z,6.16
2017-11-13T15:20:47.927Z,6.12
2017-11-13T15:22:14.904Z,6.11
2017-11-13T15:23:42.004Z,6.10
2017-11-13T15:25:09.402Z,6.07
2017-11-13T15:26:36.522Z,6.06
2017-11-13T15:28:03.493Z,6.03
2017-11-13T15:29:30.757Z,6.02
2017-11-13T15:30:58.001Z,6.02
2017-11-13T15:32:25.256Z,6.00
2017-11-13T15:33:51.596Z,5.97
2017-11-13T15:35:19.967Z,5.96
2017-11-13T15:36:45.949Z,5.94
2017-11-13T15:38:13.925Z,5.93
2017-11-13T15:39:40.122Z,5.93
2017-11-13T15:41:08.263Z,5.90
2017-11-13T15:42:35.587Z,5.88
2017-11-13T15:44:02.776Z,5.85
2017-11-13T15:45:30.141Z,5.84
2017-11-13T15:46:57.431Z,5.82
2017-11-13T15:48:23.786Z,5.81
2017-11-13T15:49:51.947Z,5.80
2017-11-13T15:51:18.912Z,5.79
2017-11-13T15:52:46.146Z,5.76
2017-11-13T15:54:13.130Z,5.76
2017-11-13T15:55:39.238Z,5.76
2017-11-13T15:57:06.109Z,5.75
2017-11-13T15:58:33.282Z,5.74
2017-11-13T16:00:01.654Z,5.72
2017-11-13T16:01:28.584Z,5.71
2017-11-13T16:02:54.495Z,5.68
2017-11-13T16:04:21.607Z,5.64
2017-11-13T16:05:49.924Z,5.61
2017-11-13T16:07:15.981Z,5.59
2017-11-13T16:08:44.249Z,5.56
2017-11-13T16:10:10.436Z,5.51
2017-11-13T16:11:37.487Z,5.49
2017-11-13T16:13:07.872Z,5.46
2017-11-13T16:14:32.790Z,5.42
2017-11-13T16:15:59.989Z,5.42
2017-11-13T16:17:26.893Z,5.39
2017-11-13T16:18:54.075Z,5.38
2017-11-13T16:20:20.212Z,5.37
2017-11-13T16:21:48.477Z,5.37
2017-11-13T16:23:15.828Z,5.36
2017-11-13T16:24:42.001Z,5.36
2017-11-13T16:26:10.136Z,5.35
2017-11-13T16:27:36.356Z,5.34
2017-11-13T16:29:04.836Z,5.32
2017-11-13T16:30:32.256Z,5.29
2017-11-13T16:31:59.460Z,5.28
2017-11-13T16:33:26.610Z,5.28
2017-11-13T16:34:53.948Z,5.28
2017-11-13T16:36:21.433Z,5.26
2017-11-13T16:37:47.521Z,5.24
2017-11-13T16:39:15.920Z,5.22
2017-11-13T16:40:42.917Z,5.17
2017-11-13T16:42:08.951Z,5.16
2017-11-13T16:43:36.331Z,5.14
2017-11-13T16:45:03.517Z,5.12
2017-11-13T16:46:31.875Z,5.10
2017-11-13T16:47:58.990Z,5.07
2017-11-13T16:49:25.446Z,5.08
2017-11-13T16:50:53.488Z,5.10
2017-11-13T16:52:20.671Z,5.12
2017-11-13T16:53:47.833Z,5.13
2017-11-13T16:55:15.106Z,5.13
2017-11-13T16:56:42.046Z,5.13
2017-11-13T16:58:08.389Z,5.12
2017-11-13T16:59:36.769Z,5.11
2017-11-13T17:01:03.637Z,5.07
2017-11-13T17:02:30.834Z,5.02
2017-11-13T17:03:57.990Z,4.96
2017-11-13T17:05:25.036Z,4.91
2017-11-13T17:06:52.168Z,4.88
2017-11-13T17:08:19.344Z,4.84
2017-11-13T17:09:46.418Z,4.82
2017-11-13T17:11:13.618Z,4.80
2017-11-13T17:12:40.707Z,4.77
2017-11-13T17:14:07.948Z,4.74
2017-11-13T17:15:35.226Z,4.73
2017-11-13T17:17:02.448Z,4.73
2017-11-13T17:18:29.763Z,4.72
2017-11-13T17:19:56.825Z,4.70
2017-11-13T17:21:24.145Z,4.69
2017-11-13T17:22:50.479Z,4.66
2017-11-13T17:24:18.672Z,4.65
2017-11-13T17:25:44.754Z,4.61
2017-11-13T17:27:12.870Z,4.60
2017-11-13T17:28:40.155Z,4.62
2017-11-13T17:30:07.520Z,4.60
2017-11-13T17:31:34.803Z,4.59
2017-11-13T17:33:01.166Z,4.58
2017-11-13T17:34:29.378Z,4.56
2017-11-13T17:35:56.448Z,4.53
2017-11-13T17:37:23.794Z,4.53
2017-11-13T17:38:51.202Z,4.52
2017-11-13T17:40:17.326Z,4.51
2017-11-13T17:41:45.112Z,4.52
2017-11-13T17:43:11.283Z,4.51
2017-11-13T17:44:39.627Z,4.51
2017-11-13T17:46:06.571Z,4.53
2017-11-13T17:47:33.875Z,4.53
2017-11-13T17:49:03.117Z,4.53
2017-11-13T17:50:27.434Z,4.51
2017-11-13T17:51:55.335Z,4.52
2017-11-13T17:53:21.408Z,4.52
2017-11-13T17:54:49.371Z,4.52
2017-11-13T17:56:15.272Z,4.54
2017-11-13T17:57:42.944Z,4.55
2017-11-13T17:59:10.131Z,4.56
2017-11-13T18:00:36.925Z,4.57
2017-11-13T18:02:03.106Z,4.57
2017-11-13T18:03:31.406Z,4.57
2017-11-13T18:04:58.491Z,4.57
2017-11-13T18:06:25.006Z,4.56
2017-11-13T18:07:53.036Z,4.54
2017-11-13T18:09:20.306Z,4.53
2017-11-13T18:10:47.323Z,4.52
2017-11-13T18:12:14.313Z,4.52
2017-11-13T18:13:41.535Z,4.53
2017-11-13T18:15:08.791Z,4.52
2017-11-13T18:16:35.725Z,4.53
2017-11-13T18:18:02.840Z,4.52
2017-11-13T18:19:30.173Z,4.51
2017-11-13T18:20:57.157Z,4.51
2017-11-13T18:22:23.504Z,4.50
2017-11-13T18:23:51.552Z,4.50
2017-11-13T18:25:18.829Z,4.48
2017-11-13T18:26:46.093Z,4.48
2017-11-13T18:28:13.341Z,4.44
2017-11-13T18:29:39.225Z,4.41
2017-11-13T18:31:06.671Z,4.35
2017-11-13T18:32:35.061Z,4.32
2017-11-13T18:34:02.088Z,4.30
2017-11-13T18:35:29.383Z,4.29
2017-11-13T18:36:56.488Z,4.28
2017-11-13T18:38:23.921Z,4.28
2017-11-13T18:39:51.135Z,4.25
2017-11-13T18:41:18.115Z,4.26
2017-11-13T18:42:45.270Z,4.26
2017-11-13T18:44:12.256Z,4.25
2017-11-13T18:45:39.624Z,4.26
2017-11-13T18:47:06.992Z,4.26
2017-11-13T18:48:34.436Z,4.27
2017-11-13T18:50:01.553Z,4.27
2017-11-13T18:51:28.663Z,4.29
2017-11-13T18:52:55.924Z,4.26
2017-11-13T18:54:22.942Z,4.28
2017-11-13T18:55:50.109Z,4.32
2017-11-13T18:57:17.295Z,4.34
2017-11-13T18:58:44.594Z,4.35
2017-11-13T19:00:10.793Z,4.33
2017-11-13T19:01:39.001Z,4.29
2017-11-13T19:03:06.094Z,4.28
2017-11-13T19:04:33.169Z,4.30
2017-11-13T19:06:00.191Z,4.32
2017-11-13T19:07:27.521Z,4.28
2017-11-13T19:08:54.884Z,4.25
2017-11-13T19:10:22.154Z,4.25
2017-11-13T19:11:49.552Z,4.23
2017-11-13T19:13:16.725Z,4.18
2017-11-13T19:14:43.802Z,4.14
2017-11-13T19:16:09.969Z,4.11
2017-11-13T19:17:38.237Z,4.05
2017-11-13T19:19:05.484Z,3.99
2017-11-13T19:20:32.767Z,3.93
2017-11-13T19:21:59.995Z,3.93
2017-11-13T19:23:25.886Z,3.94